createdAt,value
2023-05-06T00:02:04.052Z,72.46
2023-05-06T00:05:13.045Z,71.87
2023-05-06T00:08:16.632Z,72.41
2023-05-06T00:11:23.306Z,72.29
2023-05-06T00:14:29.457Z,73.37
2023-05-06T00:17:42.335Z,73.04
2023-05-06T00:20:48.947Z,73.37
2023-05-06T00:24:04.277Z,73.53
2023-05-06T00:27:14.447Z,73.42
2023-05-06T00:30:22.628Z,73.40
2023-05-06T00:33:28.966Z,73.43
2023-05-06T00:36:38.184Z,73.74
2023-05-06T00:39:44.822Z,74.11
2023-05-06T00:42:58.449Z,74.37
2023-05-06T00:46:06.636Z,74.60
2023-05-06T00:49:24.053Z,74.60
2023-05-06T00:52:28.561Z,74.52
2023-05-06T00:55:35.702Z,75.11
2023-05-06T00:58:46.916Z,74.53
2023-05-06T01:01:57.054Z,74.61
2023-05-06T01:05:06.343Z,74.67
2023-05-06T01:08:15.179Z,74.82
2023-05-06T01:11:44.913Z,74.80
2023-05-06T01:15:42.294Z,74.93
2023-05-06T01:19:00.136Z,75.28
2023-05-06T01:22:10.272Z,75.60
2023-05-06T01:25:51.138Z,75.45
2023-05-06T01:29:00.698Z,75.76
2023-05-06T01:32:46.120Z,75.87
2023-05-06T01:36:27.069Z,76.78
2023-05-06T01:39:40.431Z,76.27
2023-05-06T01:42:52.229Z,76.30
2023-05-06T01:46:05.207Z,75.99
2023-05-06T01:49:15.813Z,76.06
2023-05-06T01:52:28.865Z,76.57
2023-05-06T01:55:45.108Z,76.65
2023-05-06T01:58:51.831Z,76.69
2023-05-06T02:02:02.033Z,76.96
2023-05-06T02:05:09.405Z,78.06
2023-05-06T02:08:13.197Z,77.87
2023-05-06T02:11:19.964Z,78.82
2023-05-06T02:14:31.720Z,78.16
2023-05-06T02:17:38.394Z,78.20
2023-05-06T02:21:08.278Z,78.72
2023-05-06T02:24:14.929Z,78.36
2023-05-06T02:27:26.713Z,78.72
2023-05-06T02:30:43.331Z,78.47
2023-05-06T02:33:50.417Z,78.82
2023-05-06T02:37:05.706Z,78.28
2023-05-06T02:40:17.475Z,78.29
2023-05-06T02:43:25.978Z,78.18
2023-05-06T02:46:33.214Z,78.00
2023-05-06T02:49:35.928Z,78.02
2023-05-06T02:52:48.777Z,77.79
2023-05-06T02:55:58.313Z,77.88
2023-05-06T02:59:14.094Z,77.99
2023-05-06T03:02:16.855Z,78.15
2023-05-06T03:05:25.076Z,78.23
2023-05-06T03:08:43.707Z,78.35
2023-05-06T03:11:54.523Z,78.47
2023-05-06T03:15:14.969Z,78.43
2023-05-06T03:18:18.211Z,78.49
2023-05-06T03:21:21.460Z,78.37
2023-05-06T03:24:33.597Z,78.41
2023-05-06T03:27:38.388Z,78.57
2023-05-06T03:30:42.211Z,78.61
2023-05-06T03:34:05.784Z,78.57
2023-05-06T03:37:08.784Z,78.32
2023-05-06T03:40:33.842Z,78.08
2023-05-06T03:43:59.027Z,77.95
2023-05-06T03:47:12.883Z,77.25
2023-05-06T03:50:30.066Z,76.32
2023-05-06T03:53:33.013Z,75.94
2023-05-06T03:56:51.551Z,75.45
2023-05-06T03:59:58.823Z,75.46
2023-05-06T04:03:10.507Z,75.20
2023-05-06T04:06:19.059Z,75.01
2023-05-06T04:09:29.401Z,74.76
2023-05-06T04:12:38.227Z,74.83
2023-05-06T04:15:47.062Z,74.48
2023-05-06T04:18:53.367Z,74.43
2023-05-06T04:22:04.366Z,74.28
2023-05-06T04:25:12.404Z,73.87
2023-05-06T04:28:20.281Z,73.48
2023-05-06T04:31:37.248Z,73.10
2023-05-06T04:34:57.298Z,72.61
2023-05-06T04:38:11.674Z,72.26
2023-05-06T04:41:15.308Z,71.75
2023-05-06T04:44:33.429Z,71.49
2023-05-06T04:48:03.882Z,71.24
2023-05-06T04:51:15.423Z,70.37
2023-05-06T04:54:23.938Z,69.94
2023-05-06T04:57:29.333Z,69.46
2023-05-06T05:00:46.508Z,69.30
2023-05-06T05:04:01.315Z,68.96
2023-05-06T05:07:06.490Z,68.34
2023-05-06T05:10:34.050Z,68.00
2023-05-06T05:13:46.859Z,67.21
2023-05-06T05:16:56.268Z,66.78
2023-05-06T05:20:10.557Z,66.27
2023-05-06T05:23:25.118Z,65.79
2023-05-06T05:26:30.802Z,65.29
2023-05-06T05:29:42.474Z,64.83
2023-05-06T05:32:53.166Z,64.30
2023-05-06T05:36:04.676Z,64.16
2023-05-06T05:39:25.862Z,63.52
2023-05-06T05:42:39.489Z,62.80
2023-05-06T05:45:48.726Z,62.30
2023-05-06T05:48:59.882Z,61.36
2023-05-06T05:52:09.505Z,60.55
2023-05-06T05:55:14.728Z,61.20
2023-05-06T05:58:26.054Z,60.13
2023-05-06T06:01:51.706Z,59.23
2023-05-06T06:05:02.759Z,58.22
2023-05-06T06:08:15.751Z,57.06
2023-05-06T06:11:25.422Z,57.76
2023-05-06T06:14:35.071Z,58.19
2023-05-06T06:17:43.138Z,57.96
2023-05-06T06:20:52.495Z,56.20
2023-05-06T06:23:56.699Z,54.58
2023-05-06T06:27:12.430Z,54.26
2023-05-06T06:30:20.990Z,52.79
2023-05-06T06:33:29.771Z,51.45
2023-05-06T06:36:33.534Z,50.23
2023-05-06T06:39:44.265Z,51.33
2023-05-06T06:42:48.379Z,52.64
2023-05-06T06:46:09.146Z,52.32
2023-05-06T06:49:24.507Z,53.32
2023-05-06T06:52:36.715Z,53.18
2023-05-06T06:55:43.235Z,54.56
2023-05-06T06:58:47.579Z,54.00
2023-05-06T07:01:56.169Z,52.72
2023-05-06T07:05:15.425Z,52.26
2023-05-06T07:08:25.035Z,51.96
2023-05-06T07:11:37.156Z,51.50
2023-05-06T07:14:46.340Z,50.41
2023-05-06T07:17:51.729Z,49.36
2023-05-06T07:20:58.714Z,48.77
2023-05-06T07:24:05.014Z,47.95
2023-05-06T07:27:20.989Z,46.34
2023-05-06T07:30:27.508Z,46.98
2023-05-06T07:33:41.922Z,47.65
2023-05-06T07:36:56.650Z,46.44
2023-05-06T07:40:21.412Z,45.81
2023-05-06T07:43:28.777Z,45.04
2023-05-06T07:46:35.874Z,43.44
2023-05-06T07:49:41.289Z,42.64
2023-05-06T07:53:02.594Z,40.42
2023-05-06T07:56:10.575Z,37.47
2023-05-06T07:59:37.049Z,36.67
2023-05-06T08:02:44.475Z,36.47
2023-05-06T08:05:53.171Z,34.99
2023-05-06T08:09:22.024Z,32.58
2023-05-06T08:12:28.112Z,31.22
2023-05-06T08:15:36.493Z,32.42
2023-05-06T08:18:44.626Z,31.50
2023-05-06T08:21:55.074Z,29.89
2023-05-06T08:25:04.002Z,28.44
2023-05-06T08:28:13.672Z,25.89
2023-05-06T08:31:18.284Z,30.60
2023-05-06T08:37:52.161Z,26.95
2023-05-06T08:41:00.978Z,24.81
2023-05-06T08:44:09.240Z,26.90
2023-05-06T08:47:16.150Z,25.77
2023-05-06T08:50:22.805Z,26.43
2023-05-06T08:53:27.223Z,27.63
2023-05-06T08:56:37.513Z,26.25
2023-05-06T08:59:51.691Z,27.36
2023-05-06T09:02:57.104Z,24.59
2023-05-06T09:06:25.905Z,25.29
2023-05-06T09:09:29.296Z,25.05
2023-05-06T09:12:44.079Z,23.76
2023-05-06T09:15:52.422Z,25.87
2023-05-06T09:19:17.121Z,24.13
2023-05-06T09:22:27.081Z,24.17
2023-05-06T09:25:30.058Z,23.75
2023-05-06T09:28:40.483Z,24.94
2023-05-06T09:31:48.512Z,24.75
2023-05-06T09:34:56.960Z,22.39
2023-05-06T09:38:08.758Z,21.25
2023-05-06T09:41:15.520Z,18.45
2023-05-06T09:44:18.538Z,21.52
2023-05-06T09:47:36.653Z,19.95
2023-05-06T09:50:42.907Z,18.68
2023-05-06T09:53:58.028Z,17.41
2023-05-06T09:57:07.145Z,16.15
2023-05-06T10:00:15.228Z,17.97
2023-05-06T10:03:22.092Z,17.35
2023-05-06T10:06:27.945Z,18.09
2023-05-06T10:09:46.620Z,20.11
2023-05-06T10:12:51.409Z,19.32
2023-05-06T10:16:07.382Z,18.48
2023-05-06T10:19:22.838Z,17.47
2023-05-06T10:23:09.347Z,19.23
2023-05-06T10:26:24.483Z,18.25
2023-05-06T10:29:40.199Z,18.65
2023-05-06T10:32:47.650Z,18.59
2023-05-06T10:36:22.493Z,16.31
2023-05-06T10:39:29.779Z,17.86
2023-05-06T10:42:38.163Z,16.38
2023-05-06T10:46:12.311Z,15.80
2023-05-06T10:49:20.378Z,14.51
2023-05-06T10:52:49.125Z,16.87
2023-05-06T10:56:10.430Z,18.14
2023-05-06T10:59:21.194Z,19.66
2023-05-06T11:02:36.473Z,20.12
2023-05-06T11:05:55.104Z,21.49
2023-05-06T11:09:02.048Z,18.91
2023-05-06T11:12:23.155Z,18.70
2023-05-06T11:15:38.059Z,19.35
2023-05-06T11:18:42.936Z,19.33
2023-05-06T11:21:47.589Z,19.62
2023-05-06T11:25:03.976Z,23.88
2023-05-06T11:28:19.245Z,24.08
2023-05-06T11:31:27.780Z,24.14
2023-05-06T11:34:42.580Z,22.46
2023-05-06T11:37:48.175Z,19.44
2023-05-06T11:40:56.197Z,18.95
2023-05-06T11:44:10.899Z,18.35
2023-05-06T11:47:29.660Z,18.77
2023-05-06T11:50:37.915Z,19.00
2023-05-06T11:53:47.865Z,17.67
2023-05-06T11:57:00.457Z,18.75
2023-05-06T12:00:14.456Z,19.58
2023-05-06T12:03:34.036Z,19.23
2023-05-06T12:06:42.077Z,19.11
2023-05-06T12:09:50.350Z,23.16
2023-05-06T12:13:02.141Z,21.72
2023-05-06T12:16:09.685Z,19.26
2023-05-06T12:19:19.233Z,18.49
2023-05-06T12:22:24.828Z,20.29
2023-05-06T12:25:35.422Z,18.05
2023-05-06T12:28:43.813Z,20.84
2023-05-06T12:31:47.593Z,19.79
2023-05-06T12:34:58.445Z,18.22
2023-05-06T12:38:12.537Z,18.93
2023-05-06T12:41:18.010Z,19.01
2023-05-06T12:44:42.045Z,18.03
2023-05-06T12:48:22.205Z,17.36
2023-05-06T12:51:30.258Z,16.90
2023-05-06T12:54:38.778Z,17.33
2023-05-06T12:57:46.909Z,17.81
2023-05-06T13:00:56.035Z,19.03
2023-05-06T13:04:00.909Z,20.55
2023-05-06T13:07:18.886Z,20.52
2023-05-06T13:10:27.128Z,20.31
2023-05-06T13:13:32.643Z,22.00
2023-05-06T13:16:47.769Z,21.99
2023-05-06T13:19:56.832Z,23.04
2023-05-06T13:23:12.197Z,23.37
2023-05-06T13:26:31.417Z,24.73
2023-05-06T13:29:41.882Z,24.70
2023-05-06T13:32:49.035Z,24.71
2023-05-06T13:35:51.534Z,24.21
2023-05-06T13:39:09.390Z,23.93
2023-05-06T13:42:19.780Z,22.65
2023-05-06T13:45:36.821Z,22.66
2023-05-06T13:48:40.316Z,19.83
2023-05-06T13:51:47.342Z,20.80
2023-05-06T13:54:58.869Z,19.69
2023-05-06T13:58:10.958Z,21.66
2023-05-06T14:01:20.547Z,22.22
2023-05-06T14:04:26.442Z,22.03
2023-05-06T14:07:41.948Z,22.51
2023-05-06T14:10:45.982Z,20.73
2023-05-06T14:13:50.881Z,21.92
2023-05-06T14:16:57.826Z,21.72
2023-05-06T14:20:35.063Z,23.47
2023-05-06T14:23:48.456Z,23.87
2023-05-06T14:26:57.026Z,24.83
2023-05-06T14:30:08.619Z,24.88
2023-05-06T14:33:12.248Z,23.83
2023-05-06T14:36:26.042Z,22.27
2023-05-06T14:39:35.562Z,21.83
2023-05-06T14:43:00.434Z,22.34
2023-05-06T14:46:17.266Z,22.13
2023-05-06T14:49:25.842Z,22.54
2023-05-06T14:52:36.846Z,22.53
2023-05-06T14:55:42.404Z,24.75
2023-05-06T14:58:52.558Z,25.27
2023-05-06T15:01:59.945Z,24.91
2023-05-06T15:05:13.513Z,24.86
2023-05-06T15:08:19.555Z,28.55
2023-05-06T15:11:21.929Z,28.51
2023-05-06T15:14:30.798Z,28.89
2023-05-06T15:17:41.434Z,29.59
2023-05-06T15:20:50.928Z,29.44
2023-05-06T15:24:03.370Z,29.47
2023-05-06T15:27:18.041Z,29.07
2023-05-06T15:30:30.059Z,29.95
2023-05-06T15:33:39.258Z,30.85
2023-05-06T15:36:45.767Z,31.24
2023-05-06T15:39:53.509Z,30.87
2023-05-06T15:43:06.734Z,32.42
2023-05-06T15:46:16.195Z,32.38
2023-05-06T15:49:45.720Z,32.40
2023-05-06T15:52:51.860Z,31.71
2023-05-06T15:56:13.143Z,32.41
2023-05-06T15:59:29.454Z,32.33
2023-05-06T16:02:35.062Z,32.51
2023-05-06T16:05:43.105Z,32.97
2023-05-06T16:08:48.237Z,32.89
2023-05-06T16:11:54.654Z,33.14
2023-05-06T16:18:31.688Z,34.26
2023-05-06T16:21:44.509Z,34.33
2023-05-06T16:24:57.913Z,34.34
2023-05-06T16:28:26.199Z,34.66
2023-05-06T16:31:34.956Z,35.13
2023-05-06T16:34:44.722Z,35.14
2023-05-06T16:37:58.404Z,35.14
2023-05-06T16:41:06.626Z,35.55
2023-05-06T16:44:09.316Z,35.58
2023-05-06T16:47:14.100Z,35.88
2023-05-06T16:50:21.244Z,36.13
2023-05-06T16:53:36.727Z,36.40
2023-05-06T16:56:52.114Z,36.83
2023-05-06T16:59:59.686Z,36.80
2023-05-06T17:03:11.407Z,37.16
2023-05-06T17:06:20.434Z,37.57
2023-05-06T17:09:48.577Z,37.81
2023-05-06T17:12:58.693Z,38.15
2023-05-06T17:16:08.097Z,38.05
2023-05-06T17:19:12.086Z,38.54
2023-05-06T17:22:20.460Z,39.19
2023-05-06T17:25:29.334Z,38.87
2023-05-06T17:28:34.972Z,39.14
2023-05-06T17:31:41.311Z,39.85
2023-05-06T17:34:54.587Z,39.88
2023-05-06T17:38:01.055Z,40.12
2023-05-06T17:41:08.735Z,40.54
2023-05-06T17:44:18.917Z,40.64
2023-05-06T17:47:27.021Z,41.18
2023-05-06T17:50:34.227Z,41.20
2023-05-06T17:53:50.579Z,41.63
2023-05-06T17:56:58.748Z,41.77
2023-05-06T18:00:12.209Z,42.21
2023-05-06T18:03:17.934Z,42.58
2023-05-06T18:06:29.842Z,42.61
2023-05-06T18:09:37.847Z,42.89
2023-05-06T18:12:46.877Z,42.98
2023-05-06T18:15:53.217Z,43.28
2023-05-06T18:19:25.710Z,44.03
2023-05-06T18:22:34.299Z,46.00
2023-05-06T18:25:49.745Z,47.42
2023-05-06T18:28:55.327Z,49.01
2023-05-06T18:32:02.137Z,53.19
2023-05-06T18:35:14.076Z,53.68
2023-05-06T18:41:57.861Z,55.75
2023-05-06T18:45:13.328Z,57.69
2023-05-06T18:48:29.180Z,57.29
2023-05-06T18:51:36.983Z,57.93
2023-05-06T18:54:45.093Z,57.90
2023-05-06T18:57:48.438Z,58.46
2023-05-06T19:01:13.275Z,59.46
2023-05-06T19:04:28.089Z,60.88
2023-05-06T19:07:37.879Z,59.64
2023-05-06T19:10:52.625Z,60.87
2023-05-06T19:14:07.281Z,62.50
2023-05-06T19:17:19.498Z,62.12
2023-05-06T19:20:27.305Z,65.11
2023-05-06T19:23:40.301Z,69.43
2023-05-06T19:26:47.131Z,70.71
2023-05-06T19:29:53.760Z,72.52
2023-05-06T19:33:00.670Z,70.82
2023-05-06T19:36:21.679Z,71.09
2023-05-06T19:39:26.428Z,71.45
2023-05-06T19:42:31.563Z,71.96
2023-05-06T19:45:34.305Z,72.47
2023-05-06T19:48:53.224Z,74.23
2023-05-06T19:52:02.025Z,75.88
2023-05-06T19:55:07.710Z,77.44
2023-05-06T19:58:14.212Z,79.45
2023-05-06T20:01:20.585Z,79.80
2023-05-06T20:04:24.464Z,81.67
2023-05-06T20:07:55.020Z,83.54
2023-05-06T20:11:02.971Z,83.53
2023-05-06T20:14:10.315Z,83.49
2023-05-06T20:17:16.584Z,87.84
2023-05-06T20:20:23.098Z,85.74
2023-05-06T20:23:33.440Z,86.24
2023-05-06T20:26:37.784Z,86.56
2023-05-06T20:29:42.636Z,90.44
2023-05-06T20:32:57.680Z,88.62
2023-05-06T20:36:05.501Z,89.79
2023-05-06T20:39:11.726Z,89.60
2023-05-06T20:42:24.953Z,90.08
2023-05-06T20:45:45.822Z,92.10
2023-05-06T20:48:55.367Z,89.92
2023-05-06T20:52:03.922Z,91.02
2023-05-06T20:55:08.755Z,91.25
2023-05-06T20:58:14.034Z,91.37
2023-05-06T21:01:22.893Z,89.72
2023-05-06T21:04:38.129Z,89.56
2023-05-06T21:07:43.310Z,90.29
2023-05-06T21:11:06.254Z,90.76
2023-05-06T21:14:15.373Z,91.74
2023-05-06T21:17:23.869Z,93.13
2023-05-06T21:20:27.797Z,93.71
2023-05-06T21:23:34.259Z,95.39
2023-05-06T21:26:47.452Z,95.40
2023-05-06T21:30:07.846Z,94.73
2023-05-06T21:33:16.028Z,94.96
2023-05-06T21:36:22.489Z,94.95
2023-05-06T21:39:36.613Z,95.27
2023-05-06T21:42:44.714Z,96.27
2023-05-06T21:45:50.990Z,96.79
2023-05-06T21:49:09.540Z,96.56
2023-05-06T21:52:20.793Z,95.56
2023-05-06T21:55:39.126Z,95.75
2023-05-06T21:58:58.809Z,95.86
2023-05-06T22:02:09.947Z,95.53
2023-05-06T22:05:28.517Z,95.87
2023-05-06T22:08:33.900Z,95.07
2023-05-06T22:11:51.820Z,94.46
2023-05-06T22:15:16.142Z,94.55
2023-05-06T22:18:30.945Z,95.54
2023-05-06T22:22:00.805Z,94.17
2023-05-06T22:25:12.831Z,94.58
2023-05-06T22:28:19.791Z,93.74
2023-05-06T22:31:28.109Z,94.01
2023-05-06T22:34:36.859Z,94.00
2023-05-06T22:37:43.102Z,93.72
2023-05-06T22:40:48.392Z,93.36
2023-05-06T22:43:57.341Z,91.57
2023-05-06T22:47:03.881Z,90.97
2023-05-06T22:50:14.619Z,90.20
2023-05-06T22:53:33.261Z,89.60
2023-05-06T22:56:40.029Z,89.92
2023-05-06T22:59:59.214Z,90.33
2023-05-06T23:03:07.383Z,90.86
2023-05-06T23:06:19.316Z,90.94
2023-05-06T23:09:34.928Z,90.26
2023-05-06T23:13:04.014Z,90.03
2023-05-06T23:16:21.468Z,88.58
2023-05-06T23:19:24.112Z,87.75
2023-05-06T23:22:29.562Z,88.20
2023-05-06T23:25:39.958Z,88.26
2023-05-06T23:28:44.894Z,87.71
2023-05-06T23:32:00.671Z,87.32
2023-05-06T23:35:17.695Z,87.26
2023-05-06T23:38:29.290Z,88.30
2023-05-06T23:41:41.562Z,87.66
2023-05-06T23:44:46.147Z,87.94
2023-05-06T23:47:52.279Z,88.67
2023-05-06T23:51:00.565Z,89.14
2023-05-06T23:54:21.187Z,89.00
2023-05-06T23:57:37.815Z,89.61
